sensor_id;sensor_type;location;lat;lon;timestamp;pressure;altitude;pressure_sealevel;temperature;humidity
36692;BME280;22678;52.052;4.242;2023-08-21T00:00:03;102378.53;;;20.76;66.74
36692;BME280;22678;52.052;4.242;2023-08-21T00:02:29;102336.53;;;20.46;66.94
36692;BME280;22678;52.052;4.242;2023-08-21T00:04:55;102348.78;;;20.54;66.94
36692;BME280;22678;52.052;4.242;2023-08-21T00:07:20;102365.63;;;20.57;67.02
36692;BME280;22678;52.052;4.242;2023-08-21T00:09:46;102365.72;;;20.54;67.37
36692;BME280;22678;52.052;4.242;2023-08-21T00:12:11;102373.00;;;20.47;67.21
36692;BME280;22678;52.052;4.242;2023-08-21T00:14:36;102363.28;;;20.43;67.30
36692;BME280;22678;52.052;4.242;2023-08-21T00:17:02;102370.41;;;20.44;67.43
36692;BME280;22678;52.052;4.242;2023-08-21T00:19:28;102366.91;;;20.42;67.57
36692;BME280;22678;52.052;4.242;2023-08-21T00:21:54;102359.09;;;20.33;67.74
36692;BME280;22678;52.052;4.242;2023-08-21T00:24:19;102358.28;;;20.31;67.61
36692;BME280;22678;52.052;4.242;2023-08-21T00:26:44;102341.59;;;20.21;67.65
36692;BME280;22678;52.052;4.242;2023-08-21T00:29:10;102342.56;;;20.19;67.83
36692;BME280;22678;52.052;4.242;2023-08-21T00:31:35;102365.53;;;20.26;67.91
36692;BME280;22678;52.052;4.242;2023-08-21T00:34:01;102360.28;;;20.21;67.80
36692;BME280;22678;52.052;4.242;2023-08-21T00:36:26;102341.03;;;20.08;68.06
36692;BME280;22678;52.052;4.242;2023-08-21T00:38:51;102361.34;;;20.16;68.12
36692;BME280;22678;52.052;4.242;2023-08-21T00:41:16;102341.13;;;20.05;68.13
36692;BME280;22678;52.052;4.242;2023-08-21T00:43:42;102347.31;;;20.06;68.36
36692;BME280;22678;52.052;4.242;2023-08-21T00:46:07;102347.41;;;20.03;68.17
36692;BME280;22678;52.052;4.242;2023-08-21T00:48:33;102357.13;;;20.05;68.25
36692;BME280;22678;52.052;4.242;2023-08-21T00:50:59;102358.94;;;20.03;68.24
36692;BME280;22678;52.052;4.242;2023-08-21T00:53:24;102363.53;;;19.98;68.41
36692;BME280;22678;52.052;4.242;2023-08-21T00:55:50;102346.75;;;19.91;68.69
36692;BME280;22678;52.052;4.242;2023-08-21T00:58:16;102366.31;;;19.92;68.52
36692;BME280;22678;52.052;4.242;2023-08-21T01:00:45;102351.50;;;19.78;68.53
36692;BME280;22678;52.052;4.242;2023-08-21T01:03:10;102348.00;;;19.75;68.63
36692;BME280;22678;52.052;4.242;2023-08-21T01:05:36;102315.63;;;19.51;68.83
36692;BME280;22678;52.052;4.242;2023-08-21T01:08:22;102379.09;;;19.77;69.00
36692;BME280;22678;52.052;4.242;2023-08-21T01:10:58;102360.69;;;19.64;69.10
36692;BME280;22678;52.052;4.242;2023-08-21T01:13:56;102360.66;;;19.65;69.41
36692;BME280;22678;52.052;4.242;2023-08-21T01:16:24;102350.16;;;19.57;69.22
36692;BME280;22678;52.052;4.242;2023-08-21T01:18:50;102373.09;;;19.66;69.47
36692;BME280;22678;52.052;4.242;2023-08-21T01:21:16;102377.69;;;19.61;69.53
36692;BME280;22678;52.052;4.242;2023-08-21T01:23:41;102347.81;;;19.43;69.66
36692;BME280;22678;52.052;4.242;2023-08-21T01:26:08;102362.00;;;19.46;69.99
36692;BME280;22678;52.052;4.242;2023-08-21T01:28:34;102367.25;;;19.49;69.68
36692;BME280;22678;52.052;4.242;2023-08-21T01:31:27;102381.44;;;19.52;70.16
36692;BME280;22678;52.052;4.242;2023-08-21T01:33:59;102368.25;;;19.43;70.34
36692;BME280;22678;52.052;4.242;2023-08-21T01:36:25;102376.16;;;19.48;70.32
36692;BME280;22678;52.052;4.242;2023-08-21T01:38:52;102372.75;;;19.41;70.30
36692;BME280;22678;52.052;4.242;2023-08-21T01:41:17;102373.59;;;19.43;70.65
36692;BME280;22678;52.052;4.242;2023-08-21T01:43:42;102354.38;;;19.25;70.76
36692;BME280;22678;52.052;4.242;2023-08-21T01:46:08;102346.41;;;19.24;70.66
36692;BME280;22678;52.052;4.242;2023-08-21T01:48:33;102350.03;;;19.23;70.54
36692;BME280;22678;52.052;4.242;2023-08-21T01:51:01;102371.22;;;19.29;70.69
36692;BME280;22678;52.052;4.242;2023-08-21T01:53:26;102366.84;;;19.25;70.83
36692;BME280;22678;52.052;4.242;2023-08-21T01:55:51;102342.34;;;19.06;71.07
36692;BME280;22678;52.052;4.242;2023-08-21T01:58:17;102375.81;;;19.21;71.23
36692;BME280;22678;52.052;4.242;2023-08-21T02:00:45;102373.28;;;19.15;71.13
36692;BME280;22678;52.052;4.242;2023-08-21T02:03:11;102372.50;;;19.10;71.31
36692;BME280;22678;52.052;4.242;2023-08-21T02:05:39;102368.94;;;19.09;71.38
36692;BME280;22678;52.052;4.242;2023-08-21T02:08:06;102368.91;;;19.11;71.43
36692;BME280;22678;52.052;4.242;2023-08-21T02:10:32;102358.50;;;18.98;71.45
36692;BME280;22678;52.052;4.242;2023-08-21T02:12:57;102368.22;;;19.02;71.48
36692;BME280;22678;52.052;4.242;2023-08-21T02:15:23;102370.06;;;18.97;71.66
36692;BME280;22678;52.052;4.242;2023-08-21T02:17:48;102370.06;;;18.97;71.54
36692;BME280;22678;52.052;4.242;2023-08-21T02:20:13;102371.06;;;18.91;71.87
36692;BME280;22678;52.052;4.242;2023-08-21T02:22:39;102359.59;;;18.88;71.74
36692;BME280;22678;52.052;4.242;2023-08-21T02:25:04;102372.03;;;18.89;71.95
36692;BME280;22678;52.052;4.242;2023-08-21T02:27:30;102377.28;;;18.92;72.09
36692;BME280;22678;52.052;4.242;2023-08-21T02:29:55;102360.63;;;18.78;72.25
36692;BME280;22678;52.052;4.242;2023-08-21T02:32:21;102383.47;;;18.93;72.49
36692;BME280;22678;52.052;4.242;2023-08-21T02:34:46;102307.94;;;18.45;72.40
36692;BME280;22678;52.052;4.242;2023-08-21T02:37:11;102372.09;;;18.81;72.58
36692;BME280;22678;52.052;4.242;2023-08-21T02:39:37;102353.69;;;18.69;72.70
36692;BME280;22678;52.052;4.242;2023-08-21T02:42:02;102365.09;;;18.77;72.70
36692;BME280;22678;52.052;4.242;2023-08-21T02:44:27;102358.16;;;18.65;72.86
36692;BME280;22678;52.052;4.242;2023-08-21T02:46:53;102374.06;;;18.71;72.85
36692;BME280;22678;52.052;4.242;2023-08-21T02:49:18;102362.59;;;18.66;72.98
36692;BME280;22678;52.052;4.242;2023-08-21T02:51:43;102386.47;;;18.72;73.13
36692;BME280;22678;52.052;4.242;2023-08-21T02:54:08;102366.25;;;18.61;72.96
36692;BME280;22678;52.052;4.242;2023-08-21T02:56:34;102363.63;;;18.58;73.05
36692;BME280;22678;52.052;4.242;2023-08-21T02:58:59;102364.53;;;18.58;73.30
36692;BME280;22678;52.052;4.242;2023-08-21T03:01:24;102354.94;;;18.49;73.54
36692;BME280;22678;52.052;4.242;2023-08-21T03:03:50;102345.22;;;18.45;73.39
36692;BME280;22678;52.052;4.242;2023-08-21T03:06:15;102337.28;;;18.42;73.48
36692;BME280;22678;52.052;4.242;2023-08-21T03:08:41;102355.00;;;18.45;73.68
36692;BME280;22678;52.052;4.242;2023-08-21T03:11:08;102347.06;;;18.40;73.51
36692;BME280;22678;52.052;4.242;2023-08-21T03:13:34;102336.56;;;18.32;73.86
36692;BME280;22678;52.052;4.242;2023-08-21T03:15:59;102356.78;;;18.44;73.79
36692;BME280;22678;52.052;4.242;2023-08-21T03:18:24;102349.81;;;18.35;73.89
36692;BME280;22678;52.052;4.242;2023-08-21T03:20:50;102349.00;;;18.32;74.02
36692;BME280;22678;52.052;4.242;2023-08-21T03:23:15;102370.25;;;18.35;74.04
36692;BME280;22678;52.052;4.242;2023-08-21T03:25:40;102364.97;;;18.32;74.13
36692;BME280;22678;52.052;4.242;2023-08-21T03:28:06;102365.84;;;18.32;74.13
36692;BME280;22678;52.052;4.242;2023-08-21T03:30:31;102353.59;;;18.22;74.28
36692;BME280;22678;52.052;4.242;2023-08-21T03:32:57;102343.03;;;18.16;74.40
36692;BME280;22678;52.052;4.242;2023-08-21T03:35:22;102343.06;;;18.14;74.52
36692;BME280;22678;52.052;4.242;2023-08-21T03:37:47;102342.16;;;18.17;74.46
36692;BME280;22678;52.052;4.242;2023-08-21T03:40:13;102336.06;;;18.09;74.45
36692;BME280;22678;52.052;4.242;2023-08-21T03:42:38;102357.22;;;18.16;74.50
36692;BME280;22678;52.052;4.242;2023-08-21T03:45:04;102355.47;;;18.17;74.85
36692;BME280;22678;52.052;4.242;2023-08-21T03:47:30;102359.06;;;18.13;74.83
36692;BME280;22678;52.052;4.242;2023-08-21T03:49:55;102346.75;;;18.06;75.06
36692;BME280;22678;52.052;4.242;2023-08-21T03:52:21;102363.50;;;18.12;75.17
36692;BME280;22678;52.052;4.242;2023-08-21T03:54:46;102344.19;;;17.99;75.08
36692;BME280;22678;52.052;4.242;2023-08-21T03:57:11;102359.16;;;18.07;75.20
36692;BME280;22678;52.052;4.242;2023-08-21T03:59:37;102338.09;;;17.91;75.38
36692;BME280;22678;52.052;4.242;2023-08-21T04:02:02;102359.22;;;18.03;75.44
36692;BME280;22678;52.052;4.242;2023-08-21T04:04:27;102362.78;;;18.02;75.66
36692;BME280;22678;52.052;4.242;2023-08-21T04:06:53;102363.69;;;18.00;75.65
36692;BME280;22678;52.052;4.242;2023-08-21T04:09:18;102344.28;;;17.89;75.90
36692;BME280;22678;52.052;4.242;2023-08-21T04:11:43;102354.00;;;17.94;75.75
36692;BME280;22678;52.052;4.242;2023-08-21T04:14:09;102344.41;;;17.82;76.04
36692;BME280;22678;52.052;4.242;2023-08-21T04:16:34;102340.94;;;17.77;76.16
36692;BME280;22678;52.052;4.242;2023-08-21T04:18:59;102346.25;;;17.79;76.09
36692;BME280;22678;52.052;4.242;2023-08-21T04:21:25;102352.44;;;17.78;76.16
36692;BME280;22678;52.052;4.242;2023-08-21T04:23:50;102363.03;;;17.81;76.59
36692;BME280;22678;52.052;4.242;2023-08-21T04:26:15;102351.66;;;17.73;76.43
36692;BME280;22678;52.052;4.242;2023-08-21T04:28:41;102356.19;;;17.64;76.34
36692;BME280;22678;52.052;4.242;2023-08-21T04:31:07;102375.56;;;17.76;76.54
36692;BME280;22678;52.052;4.242;2023-08-21T04:33:33;102367.63;;;17.73;76.54
36692;BME280;22678;52.052;4.242;2023-08-21T04:35:59;102338.59;;;17.54;76.60
36692;BME280;22678;52.052;4.242;2023-08-21T04:38:24;102336.91;;;17.47;76.58
36692;BME280;22678;52.052;4.242;2023-08-21T04:40:51;102380.09;;;17.67;76.72
36692;BME280;22678;52.052;4.242;2023-08-21T04:43:16;102380.16;;;17.63;76.80
36692;BME280;22678;52.052;4.242;2023-08-21T04:45:49;102365.09;;;17.60;77.02
36692;BME280;22678;52.052;4.242;2023-08-21T04:48:15;102360.78;;;17.51;77.17
36692;BME280;22678;52.052;4.242;2023-08-21T04:50:41;102370.47;;;17.57;77.53
36692;BME280;22678;52.052;4.242;2023-08-21T04:53:06;102381.97;;;17.61;77.16
36692;BME280;22678;52.052;4.242;2023-08-21T04:55:31;102367.03;;;17.50;77.26
36692;BME280;22678;52.052;4.242;2023-08-21T04:57:56;102365.22;;;17.51;77.26
36692;BME280;22678;52.052;4.242;2023-08-21T05:00:22;102368.81;;;17.47;77.43
36692;BME280;22678;52.052;4.242;2023-08-21T05:02:47;102379.34;;;17.56;77.70
36692;BME280;22678;52.052;4.242;2023-08-21T05:05:12;102352.94;;;17.41;77.61
36692;BME280;22678;52.052;4.242;2023-08-21T05:07:38;102382.91;;;17.55;77.71
36692;BME280;22678;52.052;4.242;2023-08-21T05:10:04;102372.31;;;17.49;77.94
36692;BME280;22678;52.052;4.242;2023-08-21T05:12:29;102358.22;;;17.44;78.00
36692;BME280;22678;52.052;4.242;2023-08-21T05:14:54;102367.94;;;17.48;78.20
36692;BME280;22678;52.052;4.242;2023-08-21T05:17:20;102354.72;;;17.42;78.36
36692;BME280;22678;52.052;4.242;2023-08-21T05:19:45;102382.97;;;17.52;78.16
36692;BME280;22678;52.052;4.242;2023-08-21T05:22:10;102368.03;;;17.42;78.46
36692;BME280;22678;52.052;4.242;2023-08-21T05:24:36;102390.00;;;17.53;78.49
36692;BME280;22678;52.052;4.242;2023-08-21T05:27:01;102365.34;;;17.42;78.71
36692;BME280;22678;52.052;4.242;2023-08-21T05:29:26;102363.53;;;17.44;78.70
36692;BME280;22678;52.052;4.242;2023-08-21T05:31:52;102374.16;;;17.47;78.97
36692;BME280;22678;52.052;4.242;2023-08-21T05:34:17;102363.53;;;17.44;79.16
36692;BME280;22678;52.052;4.242;2023-08-21T05:36:42;102360.94;;;17.41;79.18
36692;BME280;22678;52.052;4.242;2023-08-21T05:39:08;102393.53;;;17.57;79.13
36692;BME280;22678;52.052;4.242;2023-08-21T05:41:33;102368.88;;;17.44;79.35
36692;BME280;22678;52.052;4.242;2023-08-21T05:43:59;102366.22;;;17.42;79.60
36692;BME280;22678;52.052;4.242;2023-08-21T05:46:24;102389.97;;;17.56;79.69
36692;BME280;22678;52.052;4.242;2023-08-21T05:48:49;102374.09;;;17.50;79.55
36692;BME280;22678;52.052;4.242;2023-08-21T05:51:15;102384.59;;;17.62;79.75
36692;BME280;22678;52.052;4.242;2023-08-21T05:53:40;102384.59;;;17.62;80.08
36692;BME280;22678;52.052;4.242;2023-08-21T05:56:05;102388.91;;;17.69;80.03
36692;BME280;22678;52.052;4.242;2023-08-21T05:58:31;102364.28;;;17.57;80.20
36692;BME280;22678;52.052;4.242;2023-08-21T06:00:58;102398.47;;;17.86;80.42
36692;BME280;22678;52.052;4.242;2023-08-21T06:03:23;102389.44;;;17.99;80.55
36692;BME280;22678;52.052;4.242;2023-08-21T06:05:49;102393.69;;;18.13;80.62
36692;BME280;22678;52.052;4.242;2023-08-21T06:08:14;102376.66;;;18.23;80.64
36692;BME280;22678;52.052;4.242;2023-08-21T06:10:40;102405.38;;;18.59;80.83
36692;BME280;22678;52.052;4.242;2023-08-21T06:13:05;102384.78;;;18.68;81.02
36692;BME280;22678;52.052;4.242;2023-08-21T06:15:30;102408.16;;;19.04;81.13
36692;BME280;22678;52.052;4.242;2023-08-21T06:17:56;102383.19;;;19.10;81.33
36692;BME280;22678;52.052;4.242;2023-08-21T06:20:21;102405.72;;;19.38;81.70
36692;BME280;22678;52.052;4.242;2023-08-21T06:22:46;102388.63;;;19.47;81.52
36692;BME280;22678;52.052;4.242;2023-08-21T06:25:12;102414.72;;;19.75;81.56
36692;BME280;22678;52.052;4.242;2023-08-21T06:27:38;102402.91;;;19.88;81.76
36692;BME280;22678;52.052;4.242;2023-08-21T06:30:04;102399.88;;;20.05;81.45
36692;BME280;22678;52.052;4.242;2023-08-21T06:32:30;102411.94;;;20.22;81.50
36692;BME280;22678;52.052;4.242;2023-08-21T06:34:55;102403.63;;;20.34;81.17
36692;BME280;22678;52.052;4.242;2023-08-21T06:37:20;102386.59;;;20.38;81.33
36692;BME280;22678;52.052;4.242;2023-08-21T06:39:46;102411.72;;;20.69;81.36
36692;BME280;22678;52.052;4.242;2023-08-21T06:42:11;102411.50;;;20.76;80.96
36692;BME280;22678;52.052;4.242;2023-08-21T06:44:36;102394.47;;;20.80;80.99
36692;BME280;22678;52.052;4.242;2023-08-21T06:47:02;102397.63;;;20.95;80.87
36692;BME280;22678;52.052;4.242;2023-08-21T06:49:27;102423.72;;;21.20;80.66
36692;BME280;22678;52.052;4.242;2023-08-21T06:51:52;102391.78;;;21.13;80.36
36692;BME280;22678;52.052;4.242;2023-08-21T06:54:18;102412.75;;;21.29;80.14
36692;BME280;22678;52.052;4.242;2023-08-21T06:56:43;102430.09;;;21.47;79.98
36692;BME280;22678;52.052;4.242;2023-08-21T06:59:09;102412.59;;;21.35;79.53
36692;BME280;22678;52.052;4.242;2023-08-21T07:01:35;102422.03;;;21.48;79.57
36692;BME280;22678;52.052;4.242;2023-08-21T07:04:00;102414.09;;;21.45;79.31
36692;BME280;22678;52.052;4.242;2023-08-21T07:06:27;102403.72;;;21.33;79.25
36692;BME280;22678;52.052;4.242;2023-08-21T07:08:53;102421.53;;;21.34;79.45
36692;BME280;22678;52.052;4.242;2023-08-21T07:11:19;102426.66;;;21.42;79.83
36692;BME280;22678;52.052;4.242;2023-08-21T07:13:44;102433.16;;;21.66;79.90
36692;BME280;22678;52.052;4.242;2023-08-21T07:16:09;102430.84;;;21.83;79.90
36692;BME280;22678;52.052;4.242;2023-08-21T07:18:35;102432.88;;;22.03;79.67
36692;BME280;22678;52.052;4.242;2023-08-21T07:21:02;102431.56;;;22.17;79.37
36692;BME280;22678;52.052;4.242;2023-08-21T07:23:29;102428.41;;;22.34;79.04
36692;BME280;22678;52.052;4.242;2023-08-21T07:25:55;102414.63;;;22.45;78.88
36692;BME280;22678;52.052;4.242;2023-08-21T07:28:20;102411.50;;;22.59;78.23
36692;BME280;22678;52.052;4.242;2023-08-21T07:30:46;102406.75;;;22.67;77.34
36692;BME280;22678;52.052;4.242;2023-08-21T07:33:11;102423.94;;;22.86;76.65
36692;BME280;22678;52.052;4.242;2023-08-21T07:35:36;102422.03;;;22.90;75.75
36692;BME280;22678;52.052;4.242;2023-08-21T07:38:02;102420.84;;;22.99;75.56
36692;BME280;22678;52.052;4.242;2023-08-21T07:40:27;102438.97;;;23.17;74.66
36692;BME280;22678;52.052;4.242;2023-08-21T07:42:53;102426.41;;;23.19;74.51
36692;BME280;22678;52.052;4.242;2023-08-21T07:45:18;102432.22;;;23.32;74.43
36692;BME280;22678;52.052;4.242;2023-08-21T07:47:44;102453.09;;;23.48;73.47
36692;BME280;22678;52.052;4.242;2023-08-21T07:50:09;102445.00;;;23.49;72.89
36692;BME280;22678;52.052;4.242;2023-08-21T07:52:36;102459.41;;;23.70;72.78
36692;BME280;22678;52.052;4.242;2023-08-21T07:55:01;102449.19;;;23.80;72.11
36692;BME280;22678;52.052;4.242;2023-08-21T07:57:28;102439.00;;;23.90;71.89
36692;BME280;22678;52.052;4.242;2023-08-21T07:59:54;102445.66;;;24.03;71.65
36692;BME280;22678;52.052;4.242;2023-08-21T08:02:20;102450.41;;;24.19;70.89
36692;BME280;22678;52.052;4.242;2023-08-21T08:04:46;102413.03;;;24.12;69.97
36692;BME280;22678;52.052;4.242;2023-08-21T08:07:11;102439.91;;;24.35;68.71
36692;BME280;22678;52.052;4.242;2023-08-21T08:09:36;102425.78;;;24.29;67.26
36692;BME280;22678;52.052;4.242;2023-08-21T08:12:02;102459.16;;;24.46;66.91
36692;BME280;22678;52.052;4.242;2023-08-21T08:14:27;102446.38;;;24.51;66.55
36692;BME280;22678;52.052;4.242;2023-08-21T08:16:53;102458.31;;;24.68;66.53
36692;BME280;22678;52.052;4.242;2023-08-21T08:19:18;102460.34;;;24.83;65.95
36692;BME280;22678;52.052;4.242;2023-08-21T08:21:43;102453.00;;;24.87;64.83
36692;BME280;22678;52.052;4.242;2023-08-21T08:24:09;102445.59;;;24.92;63.98
36692;BME280;22678;52.052;4.242;2023-08-21T08:26:34;102430.31;;;24.92;63.58
36692;BME280;22678;52.052;4.242;2023-08-21T08:29:00;102452.19;;;25.05;63.34
36692;BME280;22678;52.052;4.242;2023-08-21T08:31:25;102452.59;;;25.16;62.92
36692;BME280;22678;52.052;4.242;2023-08-21T08:33:53;102448.63;;;25.25;62.73
36692;BME280;22678;52.052;4.242;2023-08-21T08:36:18;102415.56;;;25.22;62.42
36692;BME280;22678;52.052;4.242;2023-08-21T08:38:43;102436.25;;;25.42;62.09
36692;BME280;22678;52.052;4.242;2023-08-21T08:41:25;102448.34;;;25.52;61.82
36692;BME280;22678;52.052;4.242;2023-08-21T08:43:56;102447.78;;;25.64;61.25
36692;BME280;22678;52.052;4.242;2023-08-21T08:46:24;102422.22;;;25.54;60.83
36692;BME280;22678;52.052;4.242;2023-08-21T08:48:51;102449.63;;;25.83;60.35
36692;BME280;22678;52.052;4.242;2023-08-21T08:51:16;102440.72;;;25.81;59.70
36692;BME280;22678;52.052;4.242;2023-08-21T08:53:42;102463.19;;;26.00;59.82
36692;BME280;22678;52.052;4.242;2023-08-21T08:56:08;102446.94;;;26.02;59.43
36692;BME280;22678;52.052;4.242;2023-08-21T08:58:33;102445.84;;;26.06;58.38
36692;BME280;22678;52.052;4.242;2023-08-21T09:00:59;102464.19;;;26.17;58.38
36692;BME280;22678;52.052;4.242;2023-08-21T09:03:24;102444.38;;;26.18;58.04
36692;BME280;22678;52.052;4.242;2023-08-21T09:05:50;102445.53;;;26.31;58.03
36692;BME280;22678;52.052;4.242;2023-08-21T09:08:15;102444.91;;;26.44;57.59
36692;BME280;22678;52.052;4.242;2023-08-21T09:10:42;102455.06;;;26.56;57.14
36692;BME280;22678;52.052;4.242;2023-08-21T09:13:15;102463.53;;;26.67;56.38
36692;BME280;22678;52.052;4.242;2023-08-21T09:16:08;102461.16;;;26.79;55.90
36692;BME280;22678;52.052;4.242;2023-08-21T09:18:34;102463.38;;;26.88;55.97
36692;BME280;22678;52.052;4.242;2023-08-21T09:21:02;102456.94;;;26.90;55.81
36692;BME280;22678;52.052;4.242;2023-08-21T09:23:28;102455.28;;;27.05;55.34
36692;BME280;22678;52.052;4.242;2023-08-21T09:25:53;102431.47;;;26.96;55.03
36692;BME280;22678;52.052;4.242;2023-08-21T09:28:20;102453.84;;;27.16;54.58
36692;BME280;22678;52.052;4.242;2023-08-21T09:30:50;102458.66;;;27.26;54.22
36692;BME280;22678;52.052;4.242;2023-08-21T09:33:17;102458.13;;;27.37;54.46
36692;BME280;22678;52.052;4.242;2023-08-21T09:35:44;102441.03;;;27.37;54.60
36692;BME280;22678;52.052;4.242;2023-08-21T09:38:10;102433.56;;;27.42;53.88
36692;BME280;22678;52.052;4.242;2023-08-21T09:40:39;102402.09;;;27.23;52.67
36692;BME280;22678;52.052;4.242;2023-08-21T09:43:05;102436.66;;;27.52;52.77
36692;BME280;22678;52.052;4.242;2023-08-21T09:45:33;102441.63;;;27.59;52.69
36692;BME280;22678;52.052;4.242;2023-08-21T09:47:58;102438.41;;;27.69;52.48
36692;BME280;22678;52.052;4.242;2023-08-21T09:50:24;102448.28;;;27.86;52.22
36692;BME280;22678;52.052;4.242;2023-08-21T09:52:51;102435.34;;;27.91;52.39
36692;BME280;22678;52.052;4.242;2023-08-21T09:55:17;102451.06;;;28.00;51.34
36692;BME280;22678;52.052;4.242;2023-08-21T09:57:42;102450.03;;;28.03;51.16
36692;BME280;22678;52.052;4.242;2023-08-21T10:00:09;102452.28;;;28.10;51.08
36692;BME280;22678;52.052;4.242;2023-08-21T10:02:46;102455.81;;;28.12;50.91
36692;BME280;22678;52.052;4.242;2023-08-21T10:05:16;102453.50;;;28.21;50.64
36692;BME280;22678;52.052;4.242;2023-08-21T10:07:49;102448.81;;;28.24;50.43
36692;BME280;22678;52.052;4.242;2023-08-21T10:10:18;102458.41;;;28.30;50.62
36692;BME280;22678;52.052;4.242;2023-08-21T10:12:43;102437.72;;;28.29;50.56
36692;BME280;22678;52.052;4.242;2023-08-21T10:15:09;102455.75;;;28.44;50.46
36692;BME280;22678;52.052;4.242;2023-08-21T10:17:36;102456.28;;;28.51;50.59
36692;BME280;22678;52.052;4.242;2023-08-21T10:20:03;102460.47;;;28.57;50.13
36692;BME280;22678;52.052;4.242;2023-08-21T10:22:48;102450.50;;;28.57;50.31
36692;BME280;22678;52.052;4.242;2023-08-21T10:25:19;102445.97;;;28.58;50.33
36692;BME280;22678;52.052;4.242;2023-08-21T10:27:59;102444.56;;;28.66;50.47
36692;BME280;22678;52.052;4.242;2023-08-21T10:30:28;102445.25;;;28.70;49.62
36692;BME280;22678;52.052;4.242;2023-08-21T10:32:56;102431.22;;;28.63;49.19
36692;BME280;22678;52.052;4.242;2023-08-21T10:35:23;102441.22;;;28.77;49.00
36692;BME280;22678;52.052;4.242;2023-08-21T10:38:11;102450.44;;;28.89;49.18
36692;BME280;22678;52.052;4.242;2023-08-21T10:40:38;102430.00;;;28.83;48.51
36692;BME280;22678;52.052;4.242;2023-08-21T10:43:04;102422.50;;;28.89;48.56
36692;BME280;22678;52.052;4.242;2023-08-21T10:45:30;102416.59;;;28.96;48.30
36692;BME280;22678;52.052;4.242;2023-08-21T10:47:59;102440.72;;;29.15;48.18
36692;BME280;22678;52.052;4.242;2023-08-21T10:50:25;102427.94;;;29.17;48.27
36692;BME280;22678;52.052;4.242;2023-08-21T10:52:52;102435.50;;;29.27;48.16
36692;BME280;22678;52.052;4.242;2023-08-21T10:55:18;102421.28;;;29.23;47.92
36692;BME280;22678;52.052;4.242;2023-08-21T10:57:46;102433.69;;;29.42;47.65
36692;BME280;22678;52.052;4.242;2023-08-21T11:00:13;102420.41;;;29.37;47.41
36692;BME280;22678;52.052;4.242;2023-08-21T11:02:40;102441.91;;;29.54;46.46
36692;BME280;22678;52.052;4.242;2023-08-21T11:05:07;102424.09;;;29.50;46.50
36692;BME280;22678;52.052;4.242;2023-08-21T11:07:59;102451.28;;;29.63;46.20
36692;BME280;22678;52.052;4.242;2023-08-21T11:10:29;102432.59;;;29.59;45.72
36692;BME280;22678;52.052;4.242;2023-08-21T11:12:55;102445.25;;;29.73;45.45
36692;BME280;22678;52.052;4.242;2023-08-21T11:15:22;102443.34;;;29.75;45.14
36692;BME280;22678;52.052;4.242;2023-08-21T11:17:59;102446.25;;;29.86;44.93
36692;BME280;22678;52.052;4.242;2023-08-21T11:20:32;102443.81;;;29.96;44.54
36692;BME280;22678;52.052;4.242;2023-08-21T11:22:59;102446.09;;;30.02;43.84
36692;BME280;22678;52.052;4.242;2023-08-21T11:25:28;102437.88;;;30.03;43.99
36692;BME280;22678;52.052;4.242;2023-08-21T11:27:54;102445.53;;;30.11;43.41
36692;BME280;22678;52.052;4.242;2023-08-21T11:30:22;102443.56;;;30.13;42.99
36692;BME280;22678;52.052;4.242;2023-08-21T11:32:48;102387.84;;;29.80;42.98
36692;BME280;22678;52.052;4.242;2023-08-21T11:35:14;102373.69;;;29.75;43.26
36692;BME280;22678;52.052;4.242;2023-08-21T11:37:44;102429.03;;;30.14;43.01
36692;BME280;22678;52.052;4.242;2023-08-21T11:40:12;102417.97;;;30.17;42.79
36692;BME280;22678;52.052;4.242;2023-08-21T11:42:38;102402.75;;;30.15;41.96
36692;BME280;22678;52.052;4.242;2023-08-21T11:45:04;102434.75;;;30.37;41.53
36692;BME280;22678;52.052;4.242;2023-08-21T11:47:31;102440.84;;;30.40;40.97
36692;BME280;22678;52.052;4.242;2023-08-21T11:49:58;102443.50;;;30.42;41.13
36692;BME280;22678;52.052;4.242;2023-08-21T11:52:29;102433.75;;;30.52;40.77
36692;BME280;22678;52.052;4.242;2023-08-21T11:54:56;102407.31;;;30.42;40.07
36692;BME280;22678;52.052;4.242;2023-08-21T11:57:22;102423.53;;;30.56;40.59
36692;BME280;22678;52.052;4.242;2023-08-21T11:59:51;102429.84;;;30.56;40.83
36692;BME280;22678;52.052;4.242;2023-08-21T12:02:18;102436.47;;;30.65;41.13
36692;BME280;22678;52.052;4.242;2023-08-21T12:04:44;102438.13;;;30.68;41.45
36692;BME280;22678;52.052;4.242;2023-08-21T12:07:10;102432.47;;;30.71;41.36
36692;BME280;22678;52.052;4.242;2023-08-21T12:09:37;102374.84;;;30.40;41.33
36692;BME280;22678;52.052;4.242;2023-08-21T12:12:02;102435.84;;;30.87;40.81
36692;BME280;22678;52.052;4.242;2023-08-21T12:14:28;102412.06;;;30.78;41.17
36692;BME280;22678;52.052;4.242;2023-08-21T12:16:54;102436.19;;;30.96;41.53
36692;BME280;22678;52.052;4.242;2023-08-21T12:19:22;102419.25;;;30.92;41.80
36692;BME280;22678;52.052;4.242;2023-08-21T12:21:48;102437.09;;;31.09;42.09
36692;BME280;22678;52.052;4.242;2023-08-21T12:24:13;102422.78;;;31.07;41.73
36692;BME280;22678;52.052;4.242;2023-08-21T12:26:39;102418.94;;;31.09;41.45
36692;BME280;22678;52.052;4.242;2023-08-21T12:29:04;102425.81;;;31.15;41.86
36692;BME280;22678;52.052;4.242;2023-08-21T12:31:29;102435.69;;;31.16;40.91
36692;BME280;22678;52.052;4.242;2023-08-21T12:33:55;102442.66;;;31.20;40.70
36692;BME280;22678;52.052;4.242;2023-08-21T12:36:21;102418.31;;;31.06;39.97
36692;BME280;22678;52.052;4.242;2023-08-21T12:38:46;102444.50;;;31.20;40.68
36692;BME280;22678;52.052;4.242;2023-08-21T12:41:12;102442.00;;;31.17;39.95
36692;BME280;22678;52.052;4.242;2023-08-21T12:43:37;102437.09;;;31.09;41.04
36692;BME280;22678;52.052;4.242;2023-08-21T12:46:02;102421.47;;;31.13;41.24